sensor_id;sensor_type;location;lat;lon;timestamp;pressure;altitude;pressure_sealevel;temperature;humidity
81181;BME280;70650;51.408;7.132;2023-07-30T10:34:06;100147.34;;;21.62;83.78
81181;BME280;70650;51.408;7.132;2023-07-30T10:36:46;100149.75;;;22.08;78.86
81181;BME280;70650;51.408;7.132;2023-07-30T10:39:19;100155.38;;;22.14;82.07
81181;BME280;70650;51.408;7.132;2023-07-30T10:41:58;100152.00;;;22.12;81.94
81181;BME280;70650;51.408;7.132;2023-07-30T10:44:34;100153.81;;;22.12;82.54
81181;BME280;70650;51.408;7.132;2023-07-30T10:47:00;100160.22;;;22.11;82.94
81181;BME280;70650;51.408;7.132;2023-07-30T10:49:26;100160.22;;;22.11;81.23
81181;BME280;70650;51.408;7.132;2023-07-30T10:51:53;100160.34;;;22.09;80.93
81181;BME280;70650;51.408;7.132;2023-07-30T10:54:19;100159.38;;;22.10;79.27
81181;BME280;70650;51.408;7.132;2023-07-30T10:56:45;100169.13;;;22.11;80.72
81181;BME280;70650;51.408;7.132;2023-07-30T10:59:12;100161.91;;;22.12;78.72
81181;BME280;70650;51.408;7.132;2023-07-30T11:01:39;100159.56;;;22.17;80.76
81181;BME280;70650;51.408;7.132;2023-07-30T11:04:19;100158.41;;;22.19;81.95
81181;BME280;70650;51.408;7.132;2023-07-30T11:06:46;100148.66;;;22.18;78.28
81181;BME280;70650;51.408;7.132;2023-07-30T11:09:22;100153.69;;;22.21;77.42
81181;BME280;70650;51.408;7.132;2023-07-30T11:11:48;100153.38;;;22.25;77.66
81181;BME280;70650;51.408;7.132;2023-07-30T11:14:17;100147.00;;;22.26;78.32
81181;BME280;70650;51.408;7.132;2023-07-30T11:16:58;100149.50;;;22.27;77.87
81181;BME280;70650;51.408;7.132;2023-07-30T11:19:25;100155.56;;;22.29;77.93
81181;BME280;70650;51.408;7.132;2023-07-30T11:21:51;100152.72;;;22.31;78.32
81181;BME280;70650;51.408;7.132;2023-07-30T11:24:17;100155.91;;;22.34;78.34
81181;BME280;70650;51.408;7.132;2023-07-30T11:26:43;100156.25;;;22.31;75.78
81181;BME280;70650;51.408;7.132;2023-07-30T11:29:18;100163.16;;;22.34;78.84
81181;BME280;70650;51.408;7.132;2023-07-30T11:31:45;100152.56;;;22.32;76.86
81181;BME280;70650;51.408;7.132;2023-07-30T11:34:11;100166.69;;;22.34;77.09
81181;BME280;70650;51.408;7.132;2023-07-30T11:36:37;100174.47;;;22.37;77.89
81181;BME280;70650;51.408;7.132;2023-07-30T11:39:03;100162.00;;;22.36;75.91
81181;BME280;70650;51.408;7.132;2023-07-30T11:41:29;100144.00;;;22.37;75.52
81181;BME280;70650;51.408;7.132;2023-07-30T11:43:54;100169.75;;;22.39;75.22
81181;BME280;70650;51.408;7.132;2023-07-30T11:46:20;100161.16;;;22.36;71.23
81181;BME280;70650;51.408;7.132;2023-07-30T11:48:49;100163.50;;;22.89;83.91
81181;BME280;70650;51.408;7.132;2023-07-30T11:51:31;100158.34;;;22.62;74.67
81181;BME280;70650;51.408;7.132;2023-07-30T11:53:58;100151.44;;;22.51;70.44
81181;BME280;70650;51.408;7.132;2023-07-30T11:56:28;100148.06;;;22.49;71.35
81181;BME280;70650;51.408;7.132;2023-07-30T11:58:56;100147.53;;;22.45;70.17
81181;BME280;70650;51.408;7.132;2023-07-30T12:01:27;100155.66;;;22.54;74.25
81181;BME280;70650;51.408;7.132;2023-07-30T12:03:57;100157.66;;;22.52;71.12
81181;BME280;70650;51.408;7.132;2023-07-30T12:06:22;100155.84;;;22.60;71.10
81181;BME280;70650;51.408;7.132;2023-07-30T12:08:49;100148.28;;;22.64;73.41
81181;BME280;70650;51.408;7.132;2023-07-30T12:11:16;100144.41;;;22.66;73.52
81181;BME280;70650;51.408;7.132;2023-07-30T12:13:44;100144.91;;;22.70;73.16
81181;BME280;70650;51.408;7.132;2023-07-30T12:16:11;100136.13;;;22.68;71.51
81181;BME280;70650;51.408;7.132;2023-07-30T12:18:37;100153.66;;;22.72;70.72
81181;BME280;70650;51.408;7.132;2023-07-30T12:21:03;100155.69;;;22.78;75.57
81181;BME280;70650;51.408;7.132;2023-07-30T12:23:31;100173.63;;;22.87;73.45
81181;BME280;70650;51.408;7.132;2023-07-30T12:25:57;100163.31;;;22.91;73.93
81181;BME280;70650;51.408;7.132;2023-07-30T12:28:22;100157.78;;;22.92;74.36
81181;BME280;70650;51.408;7.132;2023-07-30T12:30:47;100155.44;;;22.97;74.36
81181;BME280;70650;51.408;7.132;2023-07-30T12:39:21;100178.59;;;22.74;52.11
81181;BME280;70650;51.408;7.132;2023-07-30T12:41:46;100163.28;;;22.16;54.06
81181;BME280;70650;51.408;7.132;2023-07-30T12:44:13;100166.38;;;21.69;55.63
81181;BME280;70650;51.408;7.132;2023-07-30T12:46:38;100162.63;;;21.18;55.64
81181;BME280;70650;51.408;7.132;2023-07-30T12:49:04;100155.84;;;21.32;56.53
81181;BME280;70650;51.408;7.132;2023-07-30T12:51:31;100148.94;;;21.55;58.82
81181;BME280;70650;51.408;7.132;2023-07-30T12:53:56;100153.91;;;21.42;56.33
81181;BME280;70650;51.408;7.132;2023-07-30T12:56:22;100155.78;;;21.06;57.08
81181;BME280;70650;51.408;7.132;2023-07-30T12:58:48;100173.63;;;20.89;58.51
81181;BME280;70650;51.408;7.132;2023-07-30T13:01:13;100179.75;;;20.99;55.74
81181;BME280;70650;51.408;7.132;2023-07-30T13:03:40;100188.81;;;20.98;52.93
81181;BME280;70650;51.408;7.132;2023-07-30T13:06:10;100177.44;;;21.22;53.62
81181;BME280;70650;51.408;7.132;2023-07-30T13:08:36;100192.53;;;21.59;51.98
81181;BME280;70650;51.408;7.132;2023-07-30T13:11:01;100199.03;;;21.12;50.67
81181;BME280;70650;51.408;7.132;2023-07-30T13:13:26;100195.50;;;21.30;50.00
81181;BME280;70650;51.408;7.132;2023-07-30T13:15:52;100198.81;;;21.06;51.00
81181;BME280;70650;51.408;7.132;2023-07-30T13:18:17;100188.34;;;21.38;52.29
81181;BME280;70650;51.408;7.132;2023-07-30T13:20:44;100186.59;;;21.55;49.44
81181;BME280;70650;51.408;7.132;2023-07-30T13:23:09;100180.66;;;21.95;50.13
81181;BME280;70650;51.408;7.132;2023-07-30T13:25:34;100195.00;;;21.78;50.91
81181;BME280;70650;51.408;7.132;2023-07-30T13:27:59;100196.47;;;21.47;50.42
81181;BME280;70650;51.408;7.132;2023-07-30T13:30:26;100195.34;;;21.75;50.74
81181;BME280;70650;51.408;7.132;2023-07-30T13:32:51;100188.19;;;21.92;48.28
81181;BME280;70650;51.408;7.132;2023-07-30T13:35:17;100201.56;;;21.76;48.48
81181;BME280;70650;51.408;7.132;2023-07-30T13:37:42;100197.69;;;21.78;48.52
81181;BME280;70650;51.408;7.132;2023-07-30T13:40:08;100196.22;;;21.84;47.89
81181;BME280;70650;51.408;7.132;2023-07-30T13:42:34;100208.91;;;21.91;50.14
81181;BME280;70650;51.408;7.132;2023-07-30T13:44:59;100196.22;;;21.84;48.65
81181;BME280;70650;51.408;7.132;2023-07-30T13:47:25;100201.34;;;22.21;49.79
81181;BME280;70650;51.408;7.132;2023-07-30T13:49:50;100214.44;;;21.64;49.87
81181;BME280;70650;51.408;7.132;2023-07-30T13:52:16;100206.72;;;22.21;49.30
81181;BME280;70650;51.408;7.132;2023-07-30T13:54:41;100206.00;;;21.85;49.19
81181;BME280;70650;51.408;7.132;2023-07-30T13:57:07;100203.38;;;21.49;50.44
81181;BME280;70650;51.408;7.132;2023-07-30T13:59:32;100204.72;;;21.27;51.33
81181;BME280;70650;51.408;7.132;2023-07-30T14:01:59;100210.47;;;21.50;51.95
81181;BME280;70650;51.408;7.132;2023-07-30T14:04:24;100214.97;;;21.67;51.33
81181;BME280;70650;51.408;7.132;2023-07-30T14:06:50;100211.16;;;21.78;50.33
81181;BME280;70650;51.408;7.132;2023-07-30T14:09:16;100215.81;;;21.68;51.31
81181;BME280;70650;51.408;7.132;2023-07-30T14:11:41;100211.94;;;21.45;52.53
81181;BME280;70650;51.408;7.132;2023-07-30T14:14:10;100201.94;;;21.19;51.63
81181;BME280;70650;51.408;7.132;2023-07-30T14:16:35;100206.88;;;21.06;53.09
81181;BME280;70650;51.408;7.132;2023-07-30T14:19:00;100211.16;;;20.99;52.71
81181;BME280;70650;51.408;7.132;2023-07-30T14:21:26;100218.84;;;20.94;54.20
81181;BME280;70650;51.408;7.132;2023-07-30T14:23:51;100208.16;;;20.66;55.08
81181;BME280;70650;51.408;7.132;2023-07-30T14:26:16;100199.91;;;20.50;54.66
81181;BME280;70650;51.408;7.132;2023-07-30T14:28:42;100198.88;;;20.23;54.69
81181;BME280;70650;51.408;7.132;2023-07-30T14:31:07;100218.03;;;20.01;54.82
81181;BME280;70650;51.408;7.132;2023-07-30T14:33:32;100219.88;;;19.91;55.52
81181;BME280;70650;51.408;7.132;2023-07-30T14:35:58;100207.81;;;19.67;55.91
81181;BME280;70650;51.408;7.132;2023-07-30T14:38:23;100216.59;;;19.69;56.49
81181;BME280;70650;51.408;7.132;2023-07-30T14:40:49;100223.72;;;19.98;56.37
81181;BME280;70650;51.408;7.132;2023-07-30T14:43:14;100211.31;;;21.15;52.83
81181;BME280;70650;51.408;7.132;2023-07-30T14:45:39;100218.81;;;22.17;51.34
81181;BME280;70650;51.408;7.132;2023-07-30T14:48:04;100207.09;;;21.74;52.62
81181;BME280;70650;51.408;7.132;2023-07-30T14:50:30;100208.03;;;21.65;51.17
81181;BME280;70650;51.408;7.132;2023-07-30T14:52:55;100215.59;;;21.26;52.94
81181;BME280;70650;51.408;7.132;2023-07-30T14:55:20;100210.94;;;21.28;53.53
81181;BME280;70650;51.408;7.132;2023-07-30T14:57:46;100214.22;;;21.04;55.49
81181;BME280;70650;51.408;7.132;2023-07-30T15:00:11;100208.94;;;21.12;53.61
81181;BME280;70650;51.408;7.132;2023-07-30T15:02:38;100214.78;;;21.07;52.87
81181;BME280;70650;51.408;7.132;2023-07-30T15:05:05;100215.88;;;20.69;53.89
81181;BME280;70650;51.408;7.132;2023-07-30T15:07:31;100215.31;;;20.48;54.22
81181;BME280;70650;51.408;7.132;2023-07-30T15:09:56;100211.31;;;20.97;54.68
81181;BME280;70650;51.408;7.132;2023-07-30T15:12:21;100216.50;;;20.81;55.03
81181;BME280;70650;51.408;7.132;2023-07-30T15:14:47;100215.88;;;20.69;56.20
81181;BME280;70650;51.408;7.132;2023-07-30T15:17:12;100219.03;;;20.64;54.28
81181;BME280;70650;51.408;7.132;2023-07-30T15:19:38;100200.97;;;20.57;54.45
81181;BME280;70650;51.408;7.132;2023-07-30T15:22:04;100194.16;;;20.62;54.35
81181;BME280;70650;51.408;7.132;2023-07-30T15:24:31;100205.59;;;22.06;52.87
81181;BME280;70650;51.408;7.132;2023-07-30T15:26:57;100194.84;;;22.40;51.19
81181;BME280;70650;51.408;7.132;2023-07-30T15:29:23;100203.06;;;22.30;51.44
81181;BME280;70650;51.408;7.132;2023-07-30T15:31:50;100203.69;;;22.74;52.79
81181;BME280;70650;51.408;7.132;2023-07-30T15:34:15;100202.47;;;22.53;51.33
81181;BME280;70650;51.408;7.132;2023-07-30T15:36:41;100192.66;;;22.09;52.91
81181;BME280;70650;51.408;7.132;2023-07-30T15:39:06;100196.13;;;21.67;51.66
81181;BME280;70650;51.408;7.132;2023-07-30T15:41:31;100179.59;;;21.36;52.89
81181;BME280;70650;51.408;7.132;2023-07-30T15:43:57;100169.53;;;21.03;53.51
81181;BME280;70650;51.408;7.132;2023-07-30T15:46:22;100177.31;;;21.06;54.90
81181;BME280;70650;51.408;7.132;2023-07-30T15:48:48;100163.25;;;21.12;53.34
81181;BME280;70650;51.408;7.132;2023-07-30T15:51:14;100173.75;;;21.23;54.36
81181;BME280;70650;51.408;7.132;2023-07-30T15:53:39;100166.47;;;21.33;53.21
81181;BME280;70650;51.408;7.132;2023-07-30T15:56:06;100170.72;;;21.26;52.11
81181;BME280;70650;51.408;7.132;2023-07-30T15:58:33;100171.75;;;21.07;53.10
81181;BME280;70650;51.408;7.132;2023-07-30T16:01:06;100161.53;;;20.93;53.75
81181;BME280;70650;51.408;7.132;2023-07-30T16:03:38;100168.69;;;20.84;54.99
81181;BME280;70650;51.408;7.132;2023-07-30T16:06:04;100173.00;;;20.77;54.72
81181;BME280;70650;51.408;7.132;2023-07-30T16:08:35;100171.59;;;20.73;53.56
81181;BME280;70650;51.408;7.132;2023-07-30T16:11:05;100170.31;;;20.77;54.68
81181;BME280;70650;51.408;7.132;2023-07-30T16:13:31;100173.69;;;20.79;52.92
81181;BME280;70650;51.408;7.132;2023-07-30T16:15:56;100166.47;;;20.80;53.65
81181;BME280;70650;51.408;7.132;2023-07-30T16:18:31;100174.47;;;20.89;53.12
81181;BME280;70650;51.408;7.132;2023-07-30T16:21:02;100178.97;;;21.07;54.78
81181;BME280;70650;51.408;7.132;2023-07-30T16:23:27;100168.78;;;21.10;50.81
81181;BME280;70650;51.408;7.132;2023-07-30T16:25:53;100179.69;;;22.05;48.00
81181;BME280;70650;51.408;7.132;2023-07-30T16:28:18;100172.31;;;22.07;47.43
81181;BME280;70650;51.408;7.132;2023-07-30T16:30:43;100171.13;;;21.75;47.13
81181;BME280;70650;51.408;7.132;2023-07-30T16:33:09;100163.28;;;21.56;48.46
81181;BME280;70650;51.408;7.132;2023-07-30T16:35:35;100157.50;;;21.51;48.01
81181;BME280;70650;51.408;7.132;2023-07-30T16:38:02;100151.59;;;21.73;48.15
81181;BME280;70650;51.408;7.132;2023-07-30T16:40:29;100154.13;;;22.43;47.52
81181;BME280;70650;51.408;7.132;2023-07-30T16:42:54;100159.91;;;22.14;48.18
81181;BME280;70650;51.408;7.132;2023-07-30T16:45:21;100171.13;;;21.75;47.96
81181;BME280;70650;51.408;7.132;2023-07-30T16:47:47;100158.16;;;21.45;48.10
81181;BME280;70650;51.408;7.132;2023-07-30T16:50:12;100147.03;;;21.39;48.26
81181;BME280;70650;51.408;7.132;2023-07-30T16:52:38;100154.72;;;21.34;49.56
81181;BME280;70650;51.408;7.132;2023-07-30T16:55:05;100157.28;;;21.26;50.91
81181;BME280;70650;51.408;7.132;2023-07-30T16:57:30;100141.94;;;21.18;49.88
81181;BME280;70650;51.408;7.132;2023-07-30T17:00:00;100149.84;;;21.20;50.26
81181;BME280;70650;51.408;7.132;2023-07-30T17:02:26;100153.31;;;21.30;50.90
81181;BME280;70650;51.408;7.132;2023-07-30T17:04:51;100143.56;;;21.29;50.89
81181;BME280;70650;51.408;7.132;2023-07-30T17:07:17;100141.78;;;21.20;50.96
81181;BME280;70650;51.408;7.132;2023-07-30T17:09:42;100145.72;;;21.08;51.13
81181;BME280;70650;51.408;7.132;2023-07-30T17:12:08;100149.09;;;21.10;49.91
81181;BME280;70650;51.408;7.132;2023-07-30T17:14:33;100152.09;;;21.07;49.75
81181;BME280;70650;51.408;7.132;2023-07-30T17:16:59;100144.97;;;20.98;50.58
81181;BME280;70650;51.408;7.132;2023-07-30T17:19:25;100142.44;;;20.96;50.72
81181;BME280;70650;51.408;7.132;2023-07-30T17:21:51;100151.28;;;20.88;50.56
81181;BME280;70650;51.408;7.132;2023-07-30T17:24:16;100154.09;;;20.87;52.03
81181;BME280;70650;51.408;7.132;2023-07-30T17:26:43;100162.78;;;20.81;50.15
81181;BME280;70650;51.408;7.132;2023-07-30T17:29:08;100161.25;;;20.78;49.67
81181;BME280;70650;51.408;7.132;2023-07-30T17:31:33;100168.06;;;20.73;51.00
81181;BME280;70650;51.408;7.132;2023-07-30T17:33:59;100158.84;;;20.57;50.27
81181;BME280;70650;51.408;7.132;2023-07-30T17:36:24;100161.59;;;20.48;52.33
81181;BME280;70650;51.408;7.132;2023-07-30T17:38:50;100164.28;;;20.48;51.30
81181;BME280;70650;51.408;7.132;2023-07-30T17:41:15;100161.88;;;20.45;51.51
81181;BME280;70650;51.408;7.132;2023-07-30T17:43:40;100169.38;;;20.41;51.44
81181;BME280;70650;51.408;7.132;2023-07-30T17:46:06;100169.13;;;20.34;51.19
81181;BME280;70650;51.408;7.132;2023-07-30T17:48:31;100161.28;;;20.23;51.00
81181;BME280;70650;51.408;7.132;2023-07-30T17:50:56;100162.03;;;20.16;51.29
81181;BME280;70650;51.408;7.132;2023-07-30T17:53:22;100170.50;;;20.21;51.94
81181;BME280;70650;51.408;7.132;2023-07-30T17:55:47;100194.25;;;20.16;50.67
81181;BME280;70650;51.408;7.132;2023-07-30T17:58:13;100181.66;;;20.16;51.02
81181;BME280;70650;51.408;7.132;2023-07-30T18:00:42;100181.56;;;20.08;51.62
81181;BME280;70650;51.408;7.132;2023-07-30T18:03:09;100191.72;;;20.14;50.08
81181;BME280;70650;51.408;7.132;2023-07-30T18:05:34;100192.59;;;20.05;49.69
81181;BME280;70650;51.408;7.132;2023-07-30T18:08:01;100193.72;;;20.02;49.33
81181;BME280;70650;51.408;7.132;2023-07-30T18:10:26;100204.19;;;20.05;49.43
81181;BME280;70650;51.408;7.132;2023-07-30T18:12:52;100201.94;;;20.01;50.06
81181;BME280;70650;51.408;7.132;2023-07-30T18:15:17;100213.69;;;19.90;50.40
81181;BME280;70650;51.408;7.132;2023-07-30T18:17:43;100225.56;;;19.88;51.70
81181;BME280;70650;51.408;7.132;2023-07-30T18:20:09;100217.84;;;19.75;52.46
81181;BME280;70650;51.408;7.132;2023-07-30T18:22:35;100244.53;;;19.57;53.64
81181;BME280;70650;51.408;7.132;2023-07-30T18:25:03;100254.25;;;19.39;55.24
81181;BME280;70650;51.408;7.132;2023-07-30T18:27:29;100250.59;;;19.11;57.14
81181;BME280;70650;51.408;7.132;2023-07-30T18:29:54;100253.25;;;18.91;60.08
81181;BME280;70650;51.408;7.132;2023-07-30T18:32:21;100287.47;;;18.68;62.28
81181;BME280;70650;51.408;7.132;2023-07-30T18:34:47;100278.72;;;18.36;64.95
81181;BME280;70650;51.408;7.132;2023-07-30T18:37:13;100292.19;;;18.24;66.86
81181;BME280;70650;51.408;7.132;2023-07-30T18:39:39;100292.03;;;17.95;68.74
81181;BME280;70650;51.408;7.132;2023-07-30T18:42:05;100296.97;;;17.79;71.23
81181;BME280;70650;51.408;7.132;2023-07-30T18:44:32;100311.50;;;17.65;72.66
81181;BME280;70650;51.408;7.132;2023-07-30T18:46:58;100307.75;;;17.57;74.70
81181;BME280;70650;51.408;7.132;2023-07-30T18:49:26;100294.63;;;17.33;76.20
81181;BME280;70650;51.408;7.132;2023-07-30T18:51:53;100302.44;;;17.25;77.54
81181;BME280;70650;51.408;7.132;2023-07-30T18:54:20;100301.97;;;17.19;78.30
81181;BME280;70650;51.408;7.132;2023-07-30T18:56:47;100290.72;;;17.05;78.20
81181;BME280;70650;51.408;7.132;2023-07-30T18:59:14;100299.59;;;16.94;79.47
81181;BME280;70650;51.408;7.132;2023-07-30T19:01:39;100300.69;;;16.91;79.53
81181;BME280;70650;51.408;7.132;2023-07-30T19:04:06;100299.00;;;16.90;80.43
81181;BME280;70650;51.408;7.132;2023-07-30T19:06:33;100302.91;;;16.86;80.71
81181;BME280;70650;51.408;7.132;2023-07-30T19:08:59;100297.56;;;16.86;81.83
81181;BME280;70650;51.408;7.132;2023-07-30T19:11:24;100295.47;;;16.79;80.64
81181;BME280;70650;51.408;7.132;2023-07-30T19:13:49;100299.13;;;16.78;81.60
81181;BME280;70650;51.408;7.132;2023-07-30T19:16:16;100294.63;;;16.78;82.17
81181;BME280;70650;51.408;7.132;2023-07-30T19:18:42;100288.09;;;16.82;82.34
81181;BME280;70650;51.408;7.132;2023-07-30T19:21:07;100285.06;;;16.76;81.60
81181;BME280;70650;51.408;7.132;2023-07-30T19:23:33;100288.44;;;16.78;82.46
81181;BME280;70650;51.408;7.132;2023-07-30T19:25:58;100282.88;;;16.69;82.38
81181;BME280;70650;51.408;7.132;2023-07-30T19:28:23;100287.97;;;16.73;82.42
81181;BME280;70650;51.408;7.132;2023-07-30T19:30:49;100280.94;;;16.72;82.99
81181;BME280;70650;51.408;7.132;2023-07-30T19:33:15;100291.59;;;16.83;82.31
81181;BME280;70650;51.408;7.132;2023-07-30T19:35:40;100286.41;;;16.81;81.35
81181;BME280;70650;51.408;7.132;2023-07-30T19:38:05;100286.41;;;16.81;82.27
81181;BME280;70650;51.408;7.132;2023-07-30T19:40:33;100285.91;;;16.87;82.09
81181;BME280;70650;51.408;7.132;2023-07-30T19:42:58;100276.69;;;16.80;81.96
81181;BME280;70650;51.408;7.132;2023-07-30T19:45:24;100275.59;;;16.83;82.07
81181;BME280;70650;51.408;7.132;2023-07-30T19:47:49;100272.19;;;16.69;82.52
81181;BME280;70650;51.408;7.132;2023-07-30T19:50:17;100277.06;;;16.76;82.70
81181;BME280;70650;51.408;7.132;2023-07-30T19:52:43;100278.13;;;16.62;83.44
81181;BME280;70650;51.408;7.132;2023-07-30T19:55:08;100280.56;;;16.54;82.96
81181;BME280;70650;51.408;7.132;2023-07-30T19:57:33;100274.63;;;16.50;83.48
81181;BME280;70650;51.408;7.132;2023-07-30T19:59:59;100278.88;;;16.53;84.00
81181;BME280;70650;51.408;7.132;2023-07-30T20:02:25;100269.53;;;16.47;84.29
81181;BME280;70650;51.408;7.132;2023-07-30T20:04:50;100272.94;;;16.49;85.31
81181;BME280;70650;51.408;7.132;2023-07-30T20:07:15;100260.91;;;16.43;84.27
81181;BME280;70650;51.408;7.132;2023-07-30T20:09:42;100256.81;;;16.51;84.16
81181;BME280;70650;51.408;7.132;2023-07-30T20:12:07;100255.09;;;16.38;84.34
81181;BME280;70650;51.408;7.132;2023-07-30T20:14:33;100256.06;;;16.37;84.64
81181;BME280;70650;51.408;7.132;2023-07-30T20:16:58;100261.66;;;16.34;85.68
81181;BME280;70650;51.408;7.132;2023-07-30T20:19:23;100248.81;;;16.28;85.45
81181;BME280;70650;51.408;7.132;2023-07-30T20:21:49;100257.91;;;16.26;86.28
81181;BME280;70650;51.408;7.132;2023-07-30T20:24:14;100254.03;;;16.19;85.84
81181;BME280;70650;51.408;7.132;2023-07-30T20:26:40;100249.03;;;16.03;86.48
81181;BME280;70650;51.408;7.132;2023-07-30T20:29:06;100251.09;;;16.10;87.08
81181;BME280;70650;51.408;7.132;2023-07-30T20:31:31;100238.50;;;16.12;87.28
81181;BME280;70650;51.408;7.132;2023-07-30T20:34:04;100238.25;;;16.15;86.21
81181;BME280;70650;51.408;7.132;2023-07-30T20:36:30;100235.22;;;16.20;87.38
81181;BME280;70650;51.408;7.132;2023-07-30T20:38:55;100225.75;;;16.16;87.63
81181;BME280;70650;51.408;7.132;2023-07-30T20:41:20;100225.66;;;16.17;87.09
81181;BME280;70650;51.408;7.132;2023-07-30T20:43:46;100217.53;;;16.19;86.23
81181;BME280;70650;51.408;7.132;2023-07-30T20:46:12;100223.84;;;16.29;86.70
81181;BME280;70650;51.408;7.132;2023-07-30T20:48:38;100210.00;;;16.24;86.67
81181;BME280;70650;51.408;7.132;2023-07-30T20:51:06;100205.25;;;16.28;87.08
81181;BME280;70650;51.408;7.132;2023-07-30T20:53:32;100203.94;;;16.22;87.53
81181;BME280;70650;51.408;7.132;2023-07-30T20:55:58;100198.00;;;16.19;87.37
81181;BME280;70650;51.408;7.132;2023-07-30T20:58:24;100194.50;;;16.18;87.49
81181;BME280;70650;51.408;7.132;2023-07-30T21:00:50;100190.97;;;16.29;86.63
81181;BME280;70650;51.408;7.132;2023-07-30T21:03:15;100172.41;;;16.27;86.88
81181;BME280;70650;51.408;7.132;2023-07-30T21:05:40;100172.78;;;16.23;86.55
81181;BME280;70650;51.408;7.132;2023-07-30T21:08:06;100171.06;;;16.22;86.63
81181;BME280;70650;51.408;7.132;2023-07-30T21:10:31;100163.56;;;16.15;87.35
81181;BME280;70650;51.408;7.132;2023-07-30T21:12:57;100162.13;;;16.11;86.77
81181;BME280;70650;51.408;7.132;2023-07-30T21:15:22;100158.22;;;16.15;87.16
81181;BME280;70650;51.408;7.132;2023-07-30T21:17:47;100149.75;;;16.10;86.91
81181;BME280;70650;51.408;7.132;2023-07-30T21:20:13;100152.19;;;16.13;85.95
81181;BME280;70650;51.408;7.132;2023-07-30T21:22:38;100155.47;;;16.17;86.06
81181;BME280;70650;51.408;7.132;2023-07-30T21:25:04;100148.41;;;16.16;86.03
81181;BME280;70650;51.408;7.132;2023-07-30T21:27:30;100147.47;;;16.06;87.36
81181;BME280;70650;51.408;7.132;2023-07-30T21:29:55;100146.00;;;16.02;87.95
81181;BME280;70650;51.408;7.132;2023-07-30T21:32:21;100158.00;;;15.96;87.65
81181;BME280;70650;51.408;7.132;2023-07-30T21:34:46;100145.75;;;16.05;86.66
81181;BME280;70650;51.408;7.132;2023-07-30T21:37:11;100147.47;;;16.06;86.84
81181;BME280;70650;51.408;7.132;2023-07-30T21:39:37;100153.41;;;15.98;87.55
81181;BME280;70650;51.408;7.132;2023-07-30T21:42:03;100153.38;;;16.09;86.83
81181;BME280;70650;51.408;7.132;2023-07-30T21:44:28;100141.03;;;16.08;86.46
81181;BME280;70650;51.408;7.132;2023-07-30T21:46:53;100127.22;;;16.03;87.24
81181;BME280;70650;51.408;7.132;2023-07-30T21:49:19;100143.09;;;16.05;87.13
81181;BME280;70650;51.408;7.132;2023-07-30T21:51:44;100160.56;;;15.98;87.59
81181;BME280;70650;51.408;7.132;2023-07-30T21:54:09;100134.63;;;16.00;87.63
81181;BME280;70650;51.408;7.132;2023-07-30T21:56:35;100109.53;;;15.91;87.93
81181;BME280;70650;51.408;7.132;2023-07-30T21:59:00;100131.09;;;15.99;88.49
81181;BME280;70650;51.408;7.132;2023-07-30T22:01:25;100124.69;;;15.90;87.89
81181;BME280;70650;51.408;7.132;2023-07-30T22:03:51;100123.72;;;15.92;88.23
81181;BME280;70650;51.408;7.132;2023-07-30T22:06:18;100120.44;;;15.88;88.47
81181;BME280;70650;51.408;7.132;2023-07-30T22:08:44;100096.56;;;15.86;88.49
81181;BME280;70650;51.408;7.132;2023-07-30T22:11:16;100107.97;;;15.88;88.73
81181;BME280;70650;51.408;7.132;2023-07-30T22:13:42;100099.47;;;15.95;88.73
81181;BME280;70650;51.408;7.132;2023-07-30T22:16:08;100099.34;;;15.96;88.56
81181;BME280;70650;51.408;7.132;2023-07-30T22:18:33;100095.34;;;16.02;88.21
81181;BME280;70650;51.408;7.132;2023-07-30T22:20:59;100095.09;;;15.94;88.04
81181;BME280;70650;51.408;7.132;2023-07-30T22:23:24;100081.75;;;15.94;88.57
81181;BME280;70650;51.408;7.132;2023-07-30T22:25:51;100092.34;;;15.95;87.75
81181;BME280;70650;51.408;7.132;2023-07-30T22:28:17;100106.63;;;16.05;88.29
81181;BME280;70650;51.408;7.132;2023-07-30T22:30:43;100096.41;;;15.99;88.67
81181;BME280;70650;51.408;7.132;2023-07-30T22:33:08;100094.03;;;15.96;88.72
81181;BME280;70650;51.408;7.132;2023-07-30T22:35:34;100106.16;;;16.00;88.33
81181;BME280;70650;51.408;7.132;2023-07-30T22:37:59;100087.97;;;15.94;88.56
81181;BME280;70650;51.408;7.132;2023-07-30T22:40:25;100087.72;;;15.97;88.81
81181;BME280;70650;51.408;7.132;2023-07-30T22:42:50;100078.63;;;16.00;88.63
81181;BME280;70650;51.408;7.132;2023-07-30T22:45:15;100085.28;;;16.05;88.02
81181;BME280;70650;51.408;7.132;2023-07-30T22:47:41;100081.41;;;15.98;88.36
81181;BME280;70650;51.408;7.132;2023-07-30T22:50:06;100096.69;;;15.96;89.25
81181;BME280;70650;51.408;7.132;2023-07-30T22:52:32;100084.34;;;15.95;89.14
81181;BME280;70650;51.408;7.132;2023-07-30T22:54:57;100075.84;;;16.01;89.33
81181;BME280;70650;51.408;7.132;2023-07-30T22:57:22;100084.69;;;16.02;88.46
81181;BME280;70650;51.408;7.132;2023-07-30T22:59:47;100072.41;;;15.99;88.34
81181;BME280;70650;51.408;7.132;2023-07-30T23:02:13;100090.16;;;16.00;88.65
81181;BME280;70650;51.408;7.132;2023-07-30T23:04:38;100092.91;;;15.99;88.71
81181;BME280;70650;51.408;7.132;2023-07-30T23:07:04;100087.97;;;16.05;88.94
81181;BME280;70650;51.408;7.132;2023-07-30T23:09:29;100080.06;;;16.04;88.09
81181;BME280;70650;51.408;7.132;2023-07-30T23:11:55;100071.72;;;15.97;88.83
81181;BME280;70650;51.408;7.132;2023-07-30T23:14:22;100083.34;;;16.07;89.34
81181;BME280;70650;51.408;7.132;2023-07-30T23:16:47;100083.34;;;15.96;88.72
81181;BME280;70650;51.408;7.132;2023-07-30T23:19:13;100087.00;;;15.95;88.92
81181;BME280;70650;51.408;7.132;2023-07-30T23:21:38;100077.78;;;15.88;89.77
81181;BME280;70650;51.408;7.132;2023-07-30T23:24:03;100079.06;;;16.05;88.72